sensor_id;sensor_type;location;lat;lon;timestamp;temperature;humidity
48043;DHT22;33988;47.992;8.820;2022-09-09T00:05:22;17.50;58.40
48043;DHT22;33988;47.992;8.820;2022-09-09T00:07:59;17.50;58.20
48043;DHT22;33988;47.992;8.820;2022-09-09T00:13:08;17.50;58.20
48043;DHT22;33988;47.992;8.820;2022-09-09T00:18:29;17.40;58.30
48043;DHT22;33988;47.992;8.820;2022-09-09T00:21:14;17.40;58.20
48043;DHT22;33988;47.992;8.820;2022-09-09T00:23:50;17.40;58.30
48043;DHT22;33988;47.992;8.820;2022-09-09T00:26:45;17.40;58.30
48043;DHT22;33988;47.992;8.820;2022-09-09T00:29:42;17.30;58.40
48043;DHT22;33988;47.992;8.820;2022-09-09T00:32:15;17.30;58.30
48043;DHT22;33988;47.992;8.820;2022-09-09T00:35:02;17.30;58.30
48043;DHT22;33988;47.992;8.820;2022-09-09T00:37:40;17.30;58.50
48043;DHT22;33988;47.992;8.820;2022-09-09T00:40:23;17.30;58.40
48043;DHT22;33988;47.992;8.820;2022-09-09T00:49:08;17.20;58.60
48043;DHT22;33988;47.992;8.820;2022-09-09T00:58:09;17.10;58.70
48043;DHT22;33988;47.992;8.820;2022-09-09T01:00:43;17.10;58.60
48043;DHT22;33988;47.992;8.820;2022-09-09T01:06:16;17.00;58.80
48043;DHT22;33988;47.992;8.820;2022-09-09T01:13:58;17.00;58.80
48043;DHT22;33988;47.992;8.820;2022-09-09T01:16:31;17.00;59.00
48043;DHT22;33988;47.992;8.820;2022-09-09T01:18:59;16.90;58.90
48043;DHT22;33988;47.992;8.820;2022-09-09T01:21:46;16.90;58.90
48043;DHT22;33988;47.992;8.820;2022-09-09T01:24:42;16.90;58.90
48043;DHT22;33988;47.992;8.820;2022-09-09T01:27:28;16.90;59.10
48043;DHT22;33988;47.992;8.820;2022-09-09T01:29:55;16.90;59.00
48043;DHT22;33988;47.992;8.820;2022-09-09T01:38:21;16.80;59.40
48043;DHT22;33988;47.992;8.820;2022-09-09T01:40:49;16.80;59.30
48043;DHT22;33988;47.992;8.820;2022-09-09T01:43:20;16.80;59.30
48043;DHT22;33988;47.992;8.820;2022-09-09T01:45:51;16.80;59.30
48043;DHT22;33988;47.992;8.820;2022-09-09T01:48:21;16.80;59.40
48043;DHT22;33988;47.992;8.820;2022-09-09T01:50:49;16.80;59.50
48043;DHT22;33988;47.992;8.820;2022-09-09T01:53:19;16.80;59.50
48043;DHT22;33988;47.992;8.820;2022-09-09T01:59:07;16.80;59.70
48043;DHT22;33988;47.992;8.820;2022-09-09T02:06:56;16.90;59.90
48043;DHT22;33988;47.992;8.820;2022-09-09T02:09:29;17.00;59.80
48043;DHT22;33988;47.992;8.820;2022-09-09T02:12:13;17.00;59.80
48043;DHT22;33988;47.992;8.820;2022-09-09T02:14:55;17.00;59.90
48043;DHT22;33988;47.992;8.820;2022-09-09T02:17:33;17.00;59.90
48043;DHT22;33988;47.992;8.820;2022-09-09T02:20:19;17.00;59.90
48043;DHT22;33988;47.992;8.820;2022-09-09T02:22:50;17.00;59.90
48043;DHT22;33988;47.992;8.820;2022-09-09T02:25:22;17.10;59.70
48043;DHT22;33988;47.992;8.820;2022-09-09T02:27:51;17.10;59.80
48043;DHT22;33988;47.992;8.820;2022-09-09T02:30:23;17.10;59.90
48043;DHT22;33988;47.992;8.820;2022-09-09T02:32:54;17.10;60.00
48043;DHT22;33988;47.992;8.820;2022-09-09T02:35:24;17.10;60.00
48043;DHT22;33988;47.992;8.820;2022-09-09T02:37:54;17.10;60.00
48043;DHT22;33988;47.992;8.820;2022-09-09T02:40:23;17.10;60.20
48043;DHT22;33988;47.992;8.820;2022-09-09T02:42:54;17.20;60.30
48043;DHT22;33988;47.992;8.820;2022-09-09T02:45:27;17.20;60.30
48043;DHT22;33988;47.992;8.820;2022-09-09T02:51:09;17.20;60.40
48043;DHT22;33988;47.992;8.820;2022-09-09T02:53:58;17.20;60.60
48043;DHT22;33988;47.992;8.820;2022-09-09T02:56:36;17.20;61.00
48043;DHT22;33988;47.992;8.820;2022-09-09T02:59:11;17.20;60.20
48043;DHT22;33988;47.992;8.820;2022-09-09T03:01:40;17.30;60.30
48043;DHT22;33988;47.992;8.820;2022-09-09T03:04:07;17.20;60.20
48043;DHT22;33988;47.992;8.820;2022-09-09T03:06:34;17.30;60.30
48043;DHT22;33988;47.992;8.820;2022-09-09T03:09:03;17.20;60.20
48043;DHT22;33988;47.992;8.820;2022-09-09T03:11:30;17.30;60.40
48043;DHT22;33988;47.992;8.820;2022-09-09T03:13:57;17.30;60.50
48043;DHT22;33988;47.992;8.820;2022-09-09T03:16:24;17.30;60.40
48043;DHT22;33988;47.992;8.820;2022-09-09T03:18:51;17.30;60.50
48043;DHT22;33988;47.992;8.820;2022-09-09T03:21:20;17.30;60.60
48043;DHT22;33988;47.992;8.820;2022-09-09T03:23:52;17.30;60.70
48043;DHT22;33988;47.992;8.820;2022-09-09T03:26:24;17.30;60.60
48043;DHT22;33988;47.992;8.820;2022-09-09T03:28:53;17.30;60.70
48043;DHT22;33988;47.992;8.820;2022-09-09T03:31:23;17.30;60.80
48043;DHT22;33988;47.992;8.820;2022-09-09T03:33:55;17.30;60.80
48043;DHT22;33988;47.992;8.820;2022-09-09T03:36:22;17.30;60.90
48043;DHT22;33988;47.992;8.820;2022-09-09T03:38:49;17.30;60.90
48043;DHT22;33988;47.992;8.820;2022-09-09T03:41:17;17.30;61.00
48043;DHT22;33988;47.992;8.820;2022-09-09T03:43:46;17.30;61.00
48043;DHT22;33988;47.992;8.820;2022-09-09T03:46:13;17.30;61.10
48043;DHT22;33988;47.992;8.820;2022-09-09T03:48:40;17.30;61.10
48043;DHT22;33988;47.992;8.820;2022-09-09T03:51:10;17.30;61.80
48043;DHT22;33988;47.992;8.820;2022-09-09T03:53:37;17.30;61.00
48043;DHT22;33988;47.992;8.820;2022-09-09T03:56:07;17.30;61.10
48043;DHT22;33988;47.992;8.820;2022-09-09T03:58:37;17.30;61.10
48043;DHT22;33988;47.992;8.820;2022-09-09T04:01:12;17.30;61.10
48043;DHT22;33988;47.992;8.820;2022-09-09T04:03:42;17.30;61.10
48043;DHT22;33988;47.992;8.820;2022-09-09T04:06:12;17.30;61.10
48043;DHT22;33988;47.992;8.820;2022-09-09T04:08:41;17.30;61.00
48043;DHT22;33988;47.992;8.820;2022-09-09T04:11:08;17.30;61.00
48043;DHT22;33988;47.992;8.820;2022-09-09T04:13:37;17.30;61.00
48043;DHT22;33988;47.992;8.820;2022-09-09T04:16:07;17.30;61.20
48043;DHT22;33988;47.992;8.820;2022-09-09T04:18:37;17.30;61.20
48043;DHT22;33988;47.992;8.820;2022-09-09T04:21:09;17.30;61.20
48043;DHT22;33988;47.992;8.820;2022-09-09T04:23:38;17.30;61.20
48043;DHT22;33988;47.992;8.820;2022-09-09T04:26:06;17.30;61.20
48043;DHT22;33988;47.992;8.820;2022-09-09T04:28:35;17.30;61.20
48043;DHT22;33988;47.992;8.820;2022-09-09T04:31:08;17.30;61.30
48043;DHT22;33988;47.992;8.820;2022-09-09T04:33:44;17.30;61.40
48043;DHT22;33988;47.992;8.820;2022-09-09T04:36:11;17.10;61.50
48043;DHT22;33988;47.992;8.820;2022-09-09T04:38:39;17.30;61.30
48043;DHT22;33988;47.992;8.820;2022-09-09T04:41:06;17.30;61.30
48043;DHT22;33988;47.992;8.820;2022-09-09T04:43:38;17.30;61.30
48043;DHT22;33988;47.992;8.820;2022-09-09T04:46:05;17.10;61.50
48043;DHT22;33988;47.992;8.820;2022-09-09T04:48:33;17.30;61.20
48043;DHT22;33988;47.992;8.820;2022-09-09T04:51:11;17.30;62.00
48043;DHT22;33988;47.992;8.820;2022-09-09T04:53:43;17.30;61.30
48043;DHT22;33988;47.992;8.820;2022-09-09T04:56:15;17.30;61.20
48043;DHT22;33988;47.992;8.820;2022-09-09T04:58:43;17.30;61.20
48043;DHT22;33988;47.992;8.820;2022-09-09T05:01:12;17.30;61.40
48043;DHT22;33988;47.992;8.820;2022-09-09T05:03:46;17.30;61.50
48043;DHT22;33988;47.992;8.820;2022-09-09T05:06:18;17.30;61.50
48043;DHT22;33988;47.992;8.820;2022-09-09T05:08:48;17.30;61.60
48043;DHT22;33988;47.992;8.820;2022-09-09T05:13:51;17.30;61.60
48043;DHT22;33988;47.992;8.820;2022-09-09T05:16:19;17.30;61.50
48043;DHT22;33988;47.992;8.820;2022-09-09T05:18:46;17.30;61.50
48043;DHT22;33988;47.992;8.820;2022-09-09T05:21:15;17.30;61.60
48043;DHT22;33988;47.992;8.820;2022-09-09T05:23:45;17.30;61.80
48043;DHT22;33988;47.992;8.820;2022-09-09T05:26:17;17.40;61.90
48043;DHT22;33988;47.992;8.820;2022-09-09T05:28:46;17.40;62.00
48043;DHT22;33988;47.992;8.820;2022-09-09T05:31:17;17.40;62.00
48043;DHT22;33988;47.992;8.820;2022-09-09T05:33:47;17.40;62.10
48043;DHT22;33988;47.992;8.820;2022-09-09T05:36:21;17.40;62.10
48043;DHT22;33988;47.992;8.820;2022-09-09T05:38:51;17.40;62.10
48043;DHT22;33988;47.992;8.820;2022-09-09T05:41:20;17.20;62.10
48043;DHT22;33988;47.992;8.820;2022-09-09T05:43:49;17.40;62.10
48043;DHT22;33988;47.992;8.820;2022-09-09T05:46:21;17.50;62.10
48043;DHT22;33988;47.992;8.820;2022-09-09T05:48:50;17.50;62.20
48043;DHT22;33988;47.992;8.820;2022-09-09T05:51:23;17.50;62.00
48043;DHT22;33988;47.992;8.820;2022-09-09T05:53:51;17.50;62.20
48043;DHT22;33988;47.992;8.820;2022-09-09T05:56:22;17.50;62.20
48043;DHT22;33988;47.992;8.820;2022-09-09T05:58:52;17.50;62.20
48043;DHT22;33988;47.992;8.820;2022-09-09T06:01:30;17.60;62.40
48043;DHT22;33988;47.992;8.820;2022-09-09T06:03:58;17.60;62.60
48043;DHT22;33988;47.992;8.820;2022-09-09T06:06:33;17.60;62.50
48043;DHT22;33988;47.992;8.820;2022-09-09T06:09:07;17.70;62.60
48043;DHT22;33988;47.992;8.820;2022-09-09T06:11:39;17.70;62.70
48043;DHT22;33988;47.992;8.820;2022-09-09T06:14:07;17.70;62.70
48043;DHT22;33988;47.992;8.820;2022-09-09T06:16:35;17.80;62.70
48043;DHT22;33988;47.992;8.820;2022-09-09T06:19:09;17.80;62.80
48043;DHT22;33988;47.992;8.820;2022-09-09T06:21:39;17.90;63.20
48043;DHT22;33988;47.992;8.820;2022-09-09T06:24:10;18.00;63.20
48043;DHT22;33988;47.992;8.820;2022-09-09T06:26:40;18.00;63.30
48043;DHT22;33988;47.992;8.820;2022-09-09T06:29:08;18.10;63.10
48043;DHT22;33988;47.992;8.820;2022-09-09T06:31:36;18.20;63.20
48043;DHT22;33988;47.992;8.820;2022-09-09T06:34:08;18.30;63.20
48043;DHT22;33988;47.992;8.820;2022-09-09T06:36:39;18.40;63.30
48043;DHT22;33988;47.992;8.820;2022-09-09T06:39:09;18.40;63.40
48043;DHT22;33988;47.992;8.820;2022-09-09T06:41:40;18.50;63.40
48043;DHT22;33988;47.992;8.820;2022-09-09T06:44:11;18.60;63.40
48043;DHT22;33988;47.992;8.820;2022-09-09T06:46:44;18.60;63.30
48043;DHT22;33988;47.992;8.820;2022-09-09T06:49:14;18.70;63.30
48043;DHT22;33988;47.992;8.820;2022-09-09T06:51:43;18.80;63.40
48043;DHT22;33988;47.992;8.820;2022-09-09T06:54:13;18.80;63.20
48043;DHT22;33988;47.992;8.820;2022-09-09T06:56:41;18.90;63.30
48043;DHT22;33988;47.992;8.820;2022-09-09T06:59:10;18.90;63.40
48043;DHT22;33988;47.992;8.820;2022-09-09T07:01:41;19.00;63.60
48043;DHT22;33988;47.992;8.820;2022-09-09T07:04:16;19.00;63.50
48043;DHT22;33988;47.992;8.820;2022-09-09T07:06:46;19.10;63.80
48043;DHT22;33988;47.992;8.820;2022-09-09T07:09:16;19.20;64.10
48043;DHT22;33988;47.992;8.820;2022-09-09T07:11:47;19.30;64.30
48043;DHT22;33988;47.992;8.820;2022-09-09T07:14:21;19.40;64.30
48043;DHT22;33988;47.992;8.820;2022-09-09T07:16:48;19.50;64.10
48043;DHT22;33988;47.992;8.820;2022-09-09T07:19:15;19.60;64.10
48043;DHT22;33988;47.992;8.820;2022-09-09T07:21:45;19.70;63.80
48043;DHT22;33988;47.992;8.820;2022-09-09T07:24:16;19.80;63.70
48043;DHT22;33988;47.992;8.820;2022-09-09T07:26:45;19.90;63.60
48043;DHT22;33988;47.992;8.820;2022-09-09T07:29:15;19.90;63.50
48043;DHT22;33988;47.992;8.820;2022-09-09T07:31:46;20.00;63.30
48043;DHT22;33988;47.992;8.820;2022-09-09T07:34:16;20.10;63.20
48043;DHT22;33988;47.992;8.820;2022-09-09T07:36:43;20.20;63.10
48043;DHT22;33988;47.992;8.820;2022-09-09T07:39:13;20.30;63.00
48043;DHT22;33988;47.992;8.820;2022-09-09T07:41:48;20.40;63.10
48043;DHT22;33988;47.992;8.820;2022-09-09T07:44:21;20.60;63.10
48043;DHT22;33988;47.992;8.820;2022-09-09T07:46:49;20.70;62.80
48043;DHT22;33988;47.992;8.820;2022-09-09T07:49:19;20.90;62.50
48043;DHT22;33988;47.992;8.820;2022-09-09T07:52:00;21.10;62.10
48043;DHT22;33988;47.992;8.820;2022-09-09T07:54:29;21.30;61.60
48043;DHT22;33988;47.992;8.820;2022-09-09T07:56:58;21.40;60.80
48043;DHT22;33988;47.992;8.820;2022-09-09T07:59:25;21.50;60.20
48043;DHT22;33988;47.992;8.820;2022-09-09T08:01:54;21.60;59.80
48043;DHT22;33988;47.992;8.820;2022-09-09T08:04:25;21.60;59.70
48043;DHT22;33988;47.992;8.820;2022-09-09T08:07:00;21.60;59.80
48043;DHT22;33988;47.992;8.820;2022-09-09T08:09:30;21.60;59.80
48043;DHT22;33988;47.992;8.820;2022-09-09T08:11:59;21.60;60.10
48043;DHT22;33988;47.992;8.820;2022-09-09T08:14:28;21.60;60.30
48043;DHT22;33988;47.992;8.820;2022-09-09T08:16:58;21.70;60.90
48043;DHT22;33988;47.992;8.820;2022-09-09T08:19:26;21.90;61.60
48043;DHT22;33988;47.992;8.820;2022-09-09T08:22:00;22.10;62.10
48043;DHT22;33988;47.992;8.820;2022-09-09T08:24:28;22.50;62.40
48043;DHT22;33988;47.992;8.820;2022-09-09T08:26:55;23.00;62.30
48043;DHT22;33988;47.992;8.820;2022-09-09T08:29:25;23.40;61.20
48043;DHT22;33988;47.992;8.820;2022-09-09T08:31:58;23.90;60.10
48043;DHT22;33988;47.992;8.820;2022-09-09T08:34:28;24.30;58.70
48043;DHT22;33988;47.992;8.820;2022-09-09T08:36:56;24.60;57.70
48043;DHT22;33988;47.992;8.820;2022-09-09T08:39:23;24.80;56.60
48043;DHT22;33988;47.992;8.820;2022-09-09T08:42:36;25.00;55.90
48043;DHT22;33988;47.992;8.820;2022-09-09T08:51:29;24.90;54.40
48043;DHT22;33988;47.992;8.820;2022-09-09T08:54:02;24.80;54.70
48043;DHT22;33988;47.992;8.820;2022-09-09T08:56:32;24.70;54.70
48043;DHT22;33988;47.992;8.820;2022-09-09T08:59:01;24.60;54.30
48043;DHT22;33988;47.992;8.820;2022-09-09T09:02:34;24.50;54.40
48043;DHT22;33988;47.992;8.820;2022-09-09T09:13:13;24.10;55.80
48043;DHT22;33988;47.992;8.820;2022-09-09T09:16:41;24.20;56.20
48043;DHT22;33988;47.992;8.820;2022-09-09T09:19:26;24.30;56.70
48043;DHT22;33988;47.992;8.820;2022-09-09T09:30:39;25.20;54.90
48043;DHT22;33988;47.992;8.820;2022-09-09T09:33:26;25.30;54.20
48043;DHT22;33988;47.992;8.820;2022-09-09T09:35:59;25.40;54.60
48043;DHT22;33988;47.992;8.820;2022-09-09T09:38:28;25.50;55.00
48043;DHT22;33988;47.992;8.820;2022-09-09T09:41:34;25.60;54.20
48043;DHT22;33988;47.992;8.820;2022-09-09T09:46:50;25.80;53.40
48043;DHT22;33988;47.992;8.820;2022-09-09T09:49:20;25.90;53.00
48043;DHT22;33988;47.992;8.820;2022-09-09T09:51:47;25.90;52.30
48043;DHT22;33988;47.992;8.820;2022-09-09T09:54:29;26.00;52.00
48043;DHT22;33988;47.992;8.820;2022-09-09T09:57:14;25.90;51.20
48043;DHT22;33988;47.992;8.820;2022-09-09T09:59:45;25.80;50.80
48043;DHT22;33988;47.992;8.820;2022-09-09T10:02:22;25.80;50.90
48043;DHT22;33988;47.992;8.820;2022-09-09T10:05:12;25.70;51.20
48043;DHT22;33988;47.992;8.820;2022-09-09T10:14:08;25.50;50.70
48043;DHT22;33988;47.992;8.820;2022-09-09T10:22:39;25.40;50.60
48043;DHT22;33988;47.992;8.820;2022-09-09T10:33:52;24.60;50.90
48043;DHT22;33988;47.992;8.820;2022-09-09T10:36:49;24.60;50.80
48043;DHT22;33988;47.992;8.820;2022-09-09T10:39:37;24.40;50.60
48043;DHT22;33988;47.992;8.820;2022-09-09T10:42:15;24.30;50.50
48043;DHT22;33988;47.992;8.820;2022-09-09T10:50:29;23.70;51.10
48043;DHT22;33988;47.992;8.820;2022-09-09T10:53:37;23.70;50.60
48043;DHT22;33988;47.992;8.820;2022-09-09T10:56:16;23.70;51.50
48043;DHT22;33988;47.992;8.820;2022-09-09T11:01:28;23.60;52.50
48043;DHT22;33988;47.992;8.820;2022-09-09T11:04:27;24.00;51.90
48043;DHT22;33988;47.992;8.820;2022-09-09T11:07:06;24.20;51.20
48043;DHT22;33988;47.992;8.820;2022-09-09T11:09:46;24.50;50.90
48043;DHT22;33988;47.992;8.820;2022-09-09T11:12:19;24.60;50.50
48043;DHT22;33988;47.992;8.820;2022-09-09T11:14:55;24.80;50.50
48043;DHT22;33988;47.992;8.820;2022-09-09T11:17:56;25.00;50.20
48043;DHT22;33988;47.992;8.820;2022-09-09T11:20:26;25.20;50.00
48043;DHT22;33988;47.992;8.820;2022-09-09T11:23:03;25.40;49.60
48043;DHT22;33988;47.992;8.820;2022-09-09T11:25:37;25.50;49.00
48043;DHT22;33988;47.992;8.820;2022-09-09T11:34:40;26.10;48.60
48043;DHT22;33988;47.992;8.820;2022-09-09T11:40:24;26.50;46.90
48043;DHT22;33988;47.992;8.820;2022-09-09T11:43:11;26.70;47.30
48043;DHT22;33988;47.992;8.820;2022-09-09T11:45:51;26.80;46.60
48043;DHT22;33988;47.992;8.820;2022-09-09T11:51:24;27.00;45.70
48043;DHT22;33988;47.992;8.820;2022-09-09T11:54:00;27.00;45.50
48043;DHT22;33988;47.992;8.820;2022-09-09T11:56:47;27.10;45.30
48043;DHT22;33988;47.992;8.820;2022-09-09T11:59:26;27.00;45.80
48043;DHT22;33988;47.992;8.820;2022-09-09T12:09:42;27.30;44.40
48043;DHT22;33988;47.992;8.820;2022-09-09T12:12:24;27.40;44.40
48043;DHT22;33988;47.992;8.820;2022-09-09T12:17:31;27.50;44.20
48043;DHT22;33988;47.992;8.820;2022-09-09T12:20:14;27.60;44.10
48043;DHT22;33988;47.992;8.820;2022-09-09T12:39:59;27.50;42.70
48043;DHT22;33988;47.992;8.820;2022-09-09T12:42:29;27.40;42.30
48043;DHT22;33988;47.992;8.820;2022-09-09T12:45:19;27.30;42.90
48043;DHT22;33988;47.992;8.820;2022-09-09T12:47:55;27.20;43.70
48043;DHT22;33988;47.992;8.820;2022-09-09T12:50:30;27.20;43.80
48043;DHT22;33988;47.992;8.820;2022-09-09T12:53:03;27.20;44.00
48043;DHT22;33988;47.992;8.820;2022-09-09T12:56:00;27.20;43.70
48043;DHT22;33988;47.992;8.820;2022-09-09T12:58:31;27.20;43.70
48043;DHT22;33988;47.992;8.820;2022-09-09T13:01:05;27.20;43.40
48043;DHT22;33988;47.992;8.820;2022-09-09T13:03:42;27.20;43.10
48043;DHT22;33988;47.992;8.820;2022-09-09T13:06:28;27.20;42.20
48043;DHT22;33988;47.992;8.820;2022-09-09T13:09:00;27.20;42.80
48043;DHT22;33988;47.992;8.820;2022-09-09T13:11:38;27.20;42.90
48043;DHT22;33988;47.992;8.820;2022-09-09T13:14:18;27.20;42.40
48043;DHT22;33988;47.992;8.820;2022-09-09T13:17:00;27.20;42.20
48043;DHT22;33988;47.992;8.820;2022-09-09T13:19:32;27.20;42.50
48043;DHT22;33988;47.992;8.820;2022-09-09T13:29:50;27.10;43.10
48043;DHT22;33988;47.992;8.820;2022-09-09T13:36:40;27.00;43.50
48043;DHT22;33988;47.992;8.820;2022-09-09T13:39:16;27.00;43.10
48043;DHT22;33988;47.992;8.820;2022-09-09T13:41:49;27.00;43.20
48043;DHT22;33988;47.992;8.820;2022-09-09T13:44:27;26.90;43.00
48043;DHT22;33988;47.992;8.820;2022-09-09T13:47:38;26.80;43.00
48043;DHT22;33988;47.992;8.820;2022-09-09T13:50:25;26.70;43.40
48043;DHT22;33988;47.992;8.820;2022-09-09T13:52:58;26.60;43.50
48043;DHT22;33988;47.992;8.820;2022-09-09T13:55:28;26.60;43.60
48043;DHT22;33988;47.992;8.820;2022-09-09T13:57:58;26.60;43.50
48043;DHT22;33988;47.992;8.820;2022-09-09T14:00:31;26.60;43.70
48043;DHT22;33988;47.992;8.820;2022-09-09T14:03:00;26.50;43.90
48043;DHT22;33988;47.992;8.820;2022-09-09T14:05:32;26.50;44.00
48043;DHT22;33988;47.992;8.820;2022-09-09T14:08:00;26.50;44.00
48043;DHT22;33988;47.992;8.820;2022-09-09T14:10:27;26.50;44.40
48043;DHT22;33988;47.992;8.820;2022-09-09T14:12:54;26.50;44.70
48043;DHT22;33988;47.992;8.820;2022-09-09T14:15:22;26.50;44.70
48043;DHT22;33988;47.992;8.820;2022-09-09T14:17:49;26.50;44.50
48043;DHT22;33988;47.992;8.820;2022-09-09T14:20:18;26.50;43.90
48043;DHT22;33988;47.992;8.820;2022-09-09T14:22:53;26.40;43.70
48043;DHT22;33988;47.992;8.820;2022-09-09T14:25:31;26.40;43.20
48043;DHT22;33988;47.992;8.820;2022-09-09T14:27:59;26.30;43.20
48043;DHT22;33988;47.992;8.820;2022-09-09T14:30:26;26.30;43.20
48043;DHT22;33988;47.992;8.820;2022-09-09T14:32:52;26.30;43.30
48043;DHT22;33988;47.992;8.820;2022-09-09T14:35:22;26.20;43.20
48043;DHT22;33988;47.992;8.820;2022-09-09T14:37:50;26.10;43.40
48043;DHT22;33988;47.992;8.820;2022-09-09T14:40:19;26.10;43.90
48043;DHT22;33988;47.992;8.820;2022-09-09T14:42:53;26.00;44.10
48043;DHT22;33988;47.992;8.820;2022-09-09T14:45:20;25.90;43.90
48043;DHT22;33988;47.992;8.820;2022-09-09T14:47:49;25.80;43.60
48043;DHT22;33988;47.992;8.820;2022-09-09T14:50:16;25.80;44.40
48043;DHT22;33988;47.992;8.820;2022-09-09T14:52:46;25.70;43.70
48043;DHT22;33988;47.992;8.820;2022-09-09T14:55:13;25.60;43.60
48043;DHT22;33988;47.992;8.820;2022-09-09T14:57:41;25.50;43.60
48043;DHT22;33988;47.992;8.820;2022-09-09T15:00:09;25.40;43.60
48043;DHT22;33988;47.992;8.820;2022-09-09T15:02:40;25.30;43.50
48043;DHT22;33988;47.992;8.820;2022-09-09T15:05:09;25.20;43.60
48043;DHT22;33988;47.992;8.820;2022-09-09T15:07:37;25.10;43.90
48043;DHT22;33988;47.992;8.820;2022-09-09T15:10:05;25.00;43.90
48043;DHT22;33988;47.992;8.820;2022-09-09T15:12:37;24.90;43.80
48043;DHT22;33988;47.992;8.820;2022-09-09T15:15:07;24.80;44.10
48043;DHT22;33988;47.992;8.820;2022-09-09T15:17:35;24.70;44.20
48043;DHT22;33988;47.992;8.820;2022-09-09T15:20:05;24.70;44.40
48043;DHT22;33988;47.992;8.820;2022-09-09T15:22:33;24.60;44.00
48043;DHT22;33988;47.992;8.820;2022-09-09T15:25:00;24.50;44.50
48043;DHT22;33988;47.992;8.820;2022-09-09T15:27:29;24.40;44.50
48043;DHT22;33988;47.992;8.820;2022-09-09T15:30:01;24.40;44.50
48043;DHT22;33988;47.992;8.820;2022-09-09T15:32:27;24.30;44.50
48043;DHT22;33988;47.992;8.820;2022-09-09T15:34:55;24.20;44.70
48043;DHT22;33988;47.992;8.820;2022-09-09T15:37:21;24.20;44.40
48043;DHT22;33988;47.992;8.820;2022-09-09T15:39:48;24.20;44.80
48043;DHT22;33988;47.992;8.820;2022-09-09T15:42:15;24.10;45.00
48043;DHT22;33988;47.992;8.820;2022-09-09T15:44:42;24.10;45.10
48043;DHT22;33988;47.992;8.820;2022-09-09T15:47:12;24.00;45.10
48043;DHT22;33988;47.992;8.820;2022-09-09T15:49:42;24.00;45.00
48043;DHT22;33988;47.992;8.820;2022-09-09T15:52:10;23.90;44.80
48043;DHT22;33988;47.992;8.820;2022-09-09T15:54:37;23.90;45.20
48043;DHT22;33988;47.992;8.820;2022-09-09T15:57:11;23.80;45.30
48043;DHT22;33988;47.992;8.820;2022-09-09T15:59:40;23.80;46.30
48043;DHT22;33988;47.992;8.820;2022-09-09T16:02:10;23.70;45.70
48043;DHT22;33988;47.992;8.820;2022-09-09T16:04:42;23.60;45.70
48043;DHT22;33988;47.992;8.820;2022-09-09T16:07:11;23.60;46.00
48043;DHT22;33988;47.992;8.820;2022-09-09T16:09:38;23.60;46.00
48043;DHT22;33988;47.992;8.820;2022-09-09T16:12:06;23.50;46.10
48043;DHT22;33988;47.992;8.820;2022-09-09T16:14:39;23.40;46.10
48043;DHT22;33988;47.992;8.820;2022-09-09T16:17:11;23.40;46.20
48043;DHT22;33988;47.992;8.820;2022-09-09T16:19:39;23.30;46.40
48043;DHT22;33988;47.992;8.820;2022-09-09T16:22:06;23.30;46.50
48043;DHT22;33988;47.992;8.820;2022-09-09T16:24:33;23.20;46.30
48043;DHT22;33988;47.992;8.820;2022-09-09T16:27:02;23.20;46.50
48043;DHT22;33988;47.992;8.820;2022-09-09T16:29:29;23.20;46.80
48043;DHT22;33988;47.992;8.820;2022-09-09T16:31:58;23.10;46.80
48043;DHT22;33988;47.992;8.820;2022-09-09T16:34:29;23.00;46.80
48043;DHT22;33988;47.992;8.820;2022-09-09T16:36:56;22.90;47.00
48043;DHT22;33988;47.992;8.820;2022-09-09T16:39:23;22.90;47.20
48043;DHT22;33988;47.992;8.820;2022-09-09T16:41:53;22.80;47.30
48043;DHT22;33988;47.992;8.820;2022-09-09T16:44:22;22.70;47.30
48043;DHT22;33988;47.992;8.820;2022-09-09T16:46:49;22.70;47.40
48043;DHT22;33988;47.992;8.820;2022-09-09T16:49:26;22.60;47.70
48043;DHT22;33988;47.992;8.820;2022-09-09T16:51:57;22.60;48.00
48043;DHT22;33988;47.992;8.820;2022-09-09T16:54:25;22.60;47.90
48043;DHT22;33988;47.992;8.820;2022-09-09T16:56:56;22.50;48.00
48043;DHT22;33988;47.992;8.820;2022-09-09T16:59:23;22.40;48.40
48043;DHT22;33988;47.992;8.820;2022-09-09T17:01:53;22.30;48.60
48043;DHT22;33988;47.992;8.820;2022-09-09T17:04:26;22.30;48.40
48043;DHT22;33988;47.992;8.820;2022-09-09T17:06:54;22.30;48.50
48043;DHT22;33988;47.992;8.820;2022-09-09T17:09:26;22.20;48.80
48043;DHT22;33988;47.992;8.820;2022-09-09T17:11:59;22.20;49.00
48043;DHT22;33988;47.992;8.820;2022-09-09T17:14:26;22.10;48.90
48043;DHT22;33988;47.992;8.820;2022-09-09T17:16:53;22.10;49.00
48043;DHT22;33988;47.992;8.820;2022-09-09T17:19:43;22.00;49.30
48043;DHT22;33988;47.992;8.820;2022-09-09T17:22:13;22.00;49.50
48043;DHT22;33988;47.992;8.820;2022-09-09T17:24:44;21.90;49.60
48043;DHT22;33988;47.992;8.820;2022-09-09T17:27:11;21.90;49.80
48043;DHT22;33988;47.992;8.820;2022-09-09T17:29:41;21.90;50.10
48043;DHT22;33988;47.992;8.820;2022-09-09T17:32:07;21.80;50.30
48043;DHT22;33988;47.992;8.820;2022-09-09T17:34:37;21.80;50.50
48043;DHT22;33988;47.992;8.820;2022-09-09T17:37:04;21.80;50.80
48043;DHT22;33988;47.992;8.820;2022-09-09T17:39:34;21.70;50.90
48043;DHT22;33988;47.992;8.820;2022-09-09T17:42:04;21.70;51.10
48043;DHT22;33988;47.992;8.820;2022-09-09T17:44:31;21.70;51.20
48043;DHT22;33988;47.992;8.820;2022-09-09T17:46:59;21.60;51.50
48043;DHT22;33988;47.992;8.820;2022-09-09T17:49:26;21.60;51.50
48043;DHT22;33988;47.992;8.820;2022-09-09T17:51:55;21.60;51.50
48043;DHT22;33988;47.992;8.820;2022-09-09T17:54:23;21.50;51.70
48043;DHT22;33988;47.992;8.820;2022-09-09T17:56:52;21.50;51.90
48043;DHT22;33988;47.992;8.820;2022-09-09T17:59:21;21.50;52.00
48043;DHT22;33988;47.992;8.820;2022-09-09T18:01:50;21.40;52.00
48043;DHT22;33988;47.992;8.820;2022-09-09T18:04:19;21.40;52.10
48043;DHT22;33988;47.992;8.820;2022-09-09T18:06:48;21.40;52.20
48043;DHT22;33988;47.992;8.820;2022-09-09T18:09:19;21.30;52.40
48043;DHT22;33988;47.992;8.820;2022-09-09T18:11:50;21.30;52.50
48043;DHT22;33988;47.992;8.820;2022-09-09T18:14:30;21.30;52.60
48043;DHT22;33988;47.992;8.820;2022-09-09T18:16:59;21.20;52.70
48043;DHT22;33988;47.992;8.820;2022-09-09T18:19:28;21.20;52.70
48043;DHT22;33988;47.992;8.820;2022-09-09T18:21:56;21.20;52.90
48043;DHT22;33988;47.992;8.820;2022-09-09T18:24:31;21.20;52.90
48043;DHT22;33988;47.992;8.820;2022-09-09T18:27:01;21.10;52.90
48043;DHT22;33988;47.992;8.820;2022-09-09T18:29:31;21.00;53.10
48043;DHT22;33988;47.992;8.820;2022-09-09T18:32:01;21.00;53.10
48043;DHT22;33988;47.992;8.820;2022-09-09T18:34:28;21.00;53.10
48043;DHT22;33988;47.992;8.820;2022-09-09T18:37:01;20.90;53.10
48043;DHT22;33988;47.992;8.820;2022-09-09T18:39:28;20.80;53.20
48043;DHT22;33988;47.992;8.820;2022-09-09T18:41:59;20.80;53.20